Time;durP1;ratioP1;P1;durP2;ratioP2;P2;SDS_P1;SDS_P2;PMS_P1;PMS_P2;Temp;Humidity;BMP_temperature;BMP_pressure;BME280_temperature;BME280_humidity;BME280_pressure;Samples;Min_cycle;Max_cycle;Signal;HPM_P1;HPM_P2
2023/03/20 00:01:29;;;;;;;54.40;28.60;;;;;;;8.68;65.56;99026.91;108021;1307;22956;-42
2023/03/20 00:03:56;;;;;;;57.30;28.90;;;;;;;8.68;65.66;99022.35;108024;1306;22501;-43
2023/03/20 00:06:23;;;;;;;61.20;29.90;;;;;;;8.67;66.15;99020.33;108046;1306;23774;-43
2023/03/20 00:08:50;;;;;;;;;;;;;;;8.66;65.76;99018.25;108046;1307;23173;-42
2023/03/20 00:11:29;;;;;;;53.90;29.50;;;;;;;8.64;65.28;99013.11;108059;1307;22224;-43
2023/03/20 00:14:13;;;;;;;65.10;30.80;;;;;;;8.64;65.79;99015.58;108042;1307;22457;-42
2023/03/20 00:16:41;;;;;;;68.90;30.90;;;;;;;8.64;66.35;99011.88;108039;1306;22966;-43
2023/03/20 00:19:16;;;;;;;55.70;29.80;;;;;;;8.63;66.44;99011.75;108044;1306;22223;-42
2023/03/20 00:21:42;;;;;;;58.90;30.10;;;;;;;8.60;66.57;99014.73;108023;1307;22536;-44
2023/03/20 00:24:07;;;;;;;55.00;29.50;;;;;;;8.57;66.82;99011.05;108045;1307;22247;-43
2023/03/20 00:26:35;;;;;;;59.50;29.90;;;;;;;8.56;66.37;99013.52;108055;1307;23169;-43
2023/03/20 00:29:03;;;;;;;56.40;30.80;;;;;;;8.57;66.36;99012.46;108047;1307;22689;-42
2023/03/20 00:31:35;;;;;;;50.70;29.00;;;;;;;8.59;66.69;99011.80;108046;1307;23259;-42
2023/03/20 00:34:04;;;;;;;57.10;30.00;;;;;;;8.60;66.86;99009.14;108036;1307;23116;-43
2023/03/20 00:36:29;;;;;;;53.90;29.30;;;;;;;8.60;67.58;99010.73;108040;1307;23410;-44
2023/03/20 00:38:56;;;;;;;58.00;28.70;;;;;;;8.58;67.20;99006.98;108044;1307;22918;-43
2023/03/20 00:41:27;;;;;;;55.50;29.10;;;;;;;8.56;67.05;99006.02;108044;1307;22260;-43
2023/03/20 00:43:55;;;;;;;57.10;30.80;;;;;;;8.54;66.80;99008.05;108048;1307;22289;-43
2023/03/20 00:46:21;;;;;;;53.10;29.30;;;;;;;8.54;67.06;99005.45;108038;1306;23388;-43
2023/03/20 00:48:47;;;;;;;63.00;29.90;;;;;;;8.53;66.53;99005.15;108049;1306;22289;-43
2023/03/20 00:51:12;;;;;;;63.90;29.00;;;;;;;8.51;66.15;99003.64;108042;1307;22270;-44
2023/03/20 00:53:38;;;;;;;56.40;28.00;;;;;;;8.52;65.40;98997.52;108048;1307;22415;-43
2023/03/20 00:56:04;;;;;;;50.40;28.10;;;;;;;8.53;66.33;98996.92;108020;1307;22439;-43
2023/03/20 00:58:29;;;;;;;53.80;28.30;;;;;;;8.51;67.48;98995.14;108047;1307;23769;-43
2023/03/20 01:00:55;;;;;;;52.20;28.60;;;;;;;8.48;66.90;98991.96;108042;1307;23118;-43
2023/03/20 01:03:24;;;;;;;49.80;27.80;;;;;;;8.45;66.27;98990.70;108032;1307;23260;-43
2023/03/20 01:05:50;;;;;;;54.00;27.90;;;;;;;8.45;67.35;98990.01;108053;1306;22413;-42
2023/03/20 01:08:17;;;;;;;53.40;27.10;;;;;;;8.43;67.53;98989.73;108050;1307;22376;-43
2023/03/20 01:10:45;;;;;;;54.00;27.90;;;;;;;8.41;67.04;98991.05;108047;1307;22429;-43
2023/03/20 01:13:14;;;;;;;;;;;;;;;8.39;65.79;98990.23;108076;1307;22516;-43
2023/03/20 01:15:40;;;;;;;46.50;26.80;;;;;;;8.40;66.75;98987.95;107831;1307;22232;-43
2023/03/20 01:18:06;;;;;;;53.40;26.80;;;;;;;8.39;67.33;98988.84;108045;1307;22293;-42
2023/03/20 01:20:31;;;;;;;51.10;27.80;;;;;;;8.38;68.30;98988.36;108038;1307;23242;-42
2023/03/20 01:22:56;;;;;;;50.00;27.30;;;;;;;8.37;68.07;98991.78;108032;1307;22298;-43
2023/03/20 01:25:22;;;;;;;50.50;27.00;;;;;;;8.36;67.53;98992.89;108040;1307;22247;-42
2023/03/20 01:27:51;;;;;;;52.80;27.70;;;;;;;8.33;67.51;98993.16;107997;1307;22424;-43
2023/03/20 01:30:22;;;;;;;56.50;28.60;;;;;;;8.31;67.77;98991.35;107941;1307;22290;-43
2023/03/20 01:32:48;;;;;;;52.60;29.10;;;;;;;8.30;67.92;98991.92;107701;1304;22354;-43
2023/03/20 01:35:20;;;;;;;48.90;27.70;;;;;;;8.30;67.94;98993.14;107938;1307;23172;-43
2023/03/20 01:37:47;;;;;;;53.00;29.20;;;;;;;8.27;68.35;98989.45;107951;1308;22470;-42
2023/03/20 01:40:30;;;;;;;57.90;29.00;;;;;;;8.27;67.79;98988.26;107912;1307;23008;-42
2023/03/20 01:42:56;;;;;;;52.50;28.20;;;;;;;8.27;68.70;98989.14;107926;1308;22215;-46
2023/03/20 01:45:27;;;;;;;62.30;29.70;;;;;;;8.22;69.27;98986.39;107920;1307;22251;-42
2023/03/20 01:47:52;;;;;;;54.30;28.30;;;;;;;8.20;69.24;98985.27;107932;1307;23096;-42
2023/03/20 01:50:26;;;;;;;54.90;29.50;;;;;;;8.19;68.50;98987.29;107914;1307;22294;-43
2023/03/20 01:52:59;;;;;;;55.10;28.90;;;;;;;8.17;69.41;98985.44;107935;1307;22698;-42
2023/03/20 01:55:25;;;;;;;46.80;27.30;;;;;;;8.18;69.29;98986.97;107939;1308;22865;-42
2023/03/20 01:57:52;;;;;;;54.70;29.50;;;;;;;8.17;69.57;98984.77;107929;1308;22506;-42
2023/03/20 02:00:18;;;;;;;57.30;29.10;;;;;;;8.14;69.89;98986.45;107920;1308;22996;-42
2023/03/20 02:02:46;;;;;;;55.00;28.70;;;;;;;8.13;69.03;98990.20;107932;1307;22261;-42
2023/03/20 02:05:16;;;;;;;53.30;27.40;;;;;;;8.12;68.65;98990.59;107938;1308;22410;-43
2023/03/20 02:07:49;;;;;;;53.10;28.90;;;;;;;8.12;68.47;98992.17;107938;1307;22223;-43
2023/03/20 02:10:15;;;;;;;52.10;27.10;;;;;;;8.11;68.76;98994.45;107918;1308;22254;-43
2023/03/20 02:12:42;;;;;;;50.40;26.20;;;;;;;8.11;69.11;98995.69;107924;1297;22433;-42
2023/03/20 02:15:08;;;;;;;47.10;27.10;;;;;;;8.11;69.09;98993.09;107930;1307;22336;-43
2023/03/20 02:17:34;;;;;;;62.40;26.40;;;;;;;8.09;68.92;98998.05;107940;1308;22227;-43
2023/03/20 02:20:26;;;;;;;55.20;28.40;;;;;;;8.07;68.63;98994.65;107909;1308;22231;-43
2023/03/20 02:23:34;;;;;;;48.40;25.70;;;;;;;8.05;68.14;98992.48;107936;1307;22461;-43
2023/03/20 02:26:39;;;;;;;50.70;25.30;;;;;;;8.02;68.69;98989.84;107924;1308;23458;-43
2023/03/20 02:29:29;;;;;;;50.80;26.80;;;;;;;7.98;68.07;98988.80;107937;1308;23227;-43
2023/03/20 02:32:06;;;;;;;56.20;27.00;;;;;;;7.95;68.27;98991.45;107906;1308;22232;-43
2023/03/20 02:35:01;;;;;;;46.60;26.40;;;;;;;7.92;67.78;98989.84;107943;1308;22218;-42
2023/03/20 02:37:44;;;;;;;51.90;28.50;;;;;;;7.88;67.87;98991.58;107937;1308;22355;-42
2023/03/20 02:40:36;;;;;;;49.40;25.50;;;;;;;7.89;67.63;98990.48;107926;1308;22292;-43
2023/03/20 02:43:22;;;;;;;59.50;27.20;;;;;;;7.84;68.40;98987.79;107935;1307;22226;-42
2023/03/20 02:46:31;;;;;;;51.30;26.80;;;;;;;7.83;69.68;98984.33;107907;1307;22435;-42
2023/03/20 02:49:22;;;;;;;52.50;26.20;;;;;;;7.82;68.38;98985.23;107924;1308;22226;-43
2023/03/20 02:51:59;;;;;;;57.90;26.60;;;;;;;7.83;69.18;98989.05;107577;1308;23110;-42
2023/03/20 02:54:38;;;;;;;65.70;26.70;;;;;;;7.83;68.02;98989.21;107953;1308;22468;-43
2023/03/20 02:57:11;;;;;;;51.00;25.80;;;;;;;7.83;67.77;98984.64;107818;1307;133067;-42
2023/03/20 02:59:51;;;;;;;65.30;27.20;;;;;;;7.83;69.68;98986.58;107909;1308;22236;-42
2023/03/20 03:06:19;;;;;;;48.40;25.50;;;;;;;7.86;69.20;98978.61;106877;1307;557851;-42
2023/03/20 03:08:53;;;;;;;61.10;27.10;;;;;;;7.83;68.86;98981.00;107204;1314;23088;-43
2023/03/20 03:11:19;;;;;;;57.40;25.70;;;;;;;7.86;67.97;98977.17;107195;1314;22970;-42
2023/03/20 03:13:49;;;;;;;64.30;25.80;;;;;;;7.88;67.38;98979.16;107182;1315;22436;-43
2023/03/20 03:16:22;;;;;;;58.50;25.80;;;;;;;7.89;66.71;98978.11;107194;1314;22264;-43
2023/03/20 03:18:53;;;;;;;43.70;22.80;;;;;;;7.88;66.90;98979.34;107094;1312;182114;-44
2023/03/20 03:21:19;;;;;;;46.80;24.70;;;;;;;7.91;68.08;98979.02;107363;1312;22481;-42
2023/03/20 03:23:47;;;;;;;46.30;23.40;;;;;;;7.92;68.34;98983.02;107365;1312;22462;-43
2023/03/20 03:26:24;;;;;;;46.40;24.70;;;;;;;7.93;68.05;98981.56;107362;1312;22611;-43
2023/03/20 03:28:54;;;;;;;47.90;23.80;;;;;;;7.95;68.00;98980.09;107365;1312;22299;-43
2023/03/20 03:31:21;;;;;;;46.20;23.50;;;;;;;7.95;67.53;98980.57;107386;1312;22339;-43
2023/03/20 03:33:54;;;;;;;69.50;25.50;;;;;;;7.94;66.76;98982.41;107358;1312;22427;-43
2023/03/20 03:36:37;;;;;;;52.90;25.60;;;;;;;7.93;66.62;98979.98;107368;1312;22270;-43
2023/03/20 03:39:15;;;;;;;59.40;25.30;;;;;;;7.93;66.02;98979.63;107356;1312;22251;-43
2023/03/20 03:42:02;;;;;;;55.10;26.70;;;;;;;7.95;65.46;98974.67;107618;1310;23039;-43
2023/03/20 03:44:36;;;;;;;45.60;24.80;;;;;;;7.96;65.60;98975.13;107620;1310;22235;-43
2023/03/20 03:47:06;;;;;;;58.60;25.80;;;;;;;7.96;65.59;98967.64;107596;1309;22347;-43
2023/03/20 03:49:36;;;;;;;61.30;25.60;;;;;;;7.93;65.97;98967.98;107613;1310;22282;-43
2023/03/20 03:52:08;;;;;;;66.40;26.70;;;;;;;7.91;66.41;98966.66;107596;1310;22247;-42
2023/03/20 03:54:40;;;;;;;68.50;27.50;;;;;;;7.91;66.33;98971.39;107620;1310;23081;-43
2023/03/20 03:57:07;;;;;;;99.90;39.50;;;;;;;7.88;65.82;98968.92;107607;1310;23530;-42
2023/03/20 03:59:37;;;;;;;79.60;36.00;;;;;;;7.86;65.78;98969.52;107624;1310;22479;-42
2023/03/20 04:02:04;;;;;;;62.90;27.50;;;;;;;7.86;66.51;98965.68;107607;1309;22308;-43
2023/03/20 04:04:31;;;;;;;;;;;;;;;7.84;67.15;98965.58;107637;1310;22464;-43
2023/03/20 04:06:57;;;;;;;63.90;27.10;;;;;;;7.83;68.01;98965.14;107629;1310;22284;-42
2023/03/20 04:09:22;;;;;;;65.50;26.00;;;;;;;7.82;66.72;98963.23;107598;1310;23085;-42
2023/03/20 04:11:50;;;;;;;66.80;26.30;;;;;;;7.86;66.09;98963.05;107607;1310;22618;-42
2023/03/20 04:14:17;;;;;;;63.00;28.70;;;;;;;7.86;66.42;98966.70;107614;1310;22462;-42
2023/03/20 04:16:42;;;;;;;58.70;27.50;;;;;;;7.88;65.85;98966.64;107601;1286;22237;-42
2023/03/20 04:19:07;;;;;;;70.10;29.40;;;;;;;7.91;66.75;98968.07;107550;1310;22278;-44
2023/03/20 04:21:33;;;;;;;63.80;27.90;;;;;;;7.89;66.26;98963.60;107557;1310;22504;-43
2023/03/20 04:23:58;;;;;;;66.00;27.50;;;;;;;7.88;66.29;98968.02;107564;1310;22433;-43
2023/03/20 04:26:24;;;;;;;63.60;28.20;;;;;;;7.86;66.28;98968.30;107559;1310;22281;-43
2023/03/20 04:28:49;;;;;;;83.40;29.50;;;;;;;7.89;65.45;98966.41;107556;1310;22198;-43
2023/03/20 04:31:15;;;;;;;85.20;28.10;;;;;;;7.91;65.04;98966.33;107567;1310;23198;-43
2023/03/20 04:33:41;;;;;;;57.80;29.00;;;;;;;7.91;64.78;98969.61;107577;1310;23152;-42
2023/03/20 04:36:07;;;;;;;54.70;26.60;;;;;;;7.93;64.30;98972.17;107572;1310;22412;-42
2023/03/20 04:38:32;;;;;;;54.60;27.30;;;;;;;7.91;64.07;98967.33;107583;1310;22436;-42
2023/03/20 04:40:57;;;;;;;52.90;26.80;;;;;;;7.93;64.12;98969.70;107550;1310;23180;-42
2023/03/20 04:43:23;;;;;;;52.70;25.70;;;;;;;7.93;64.23;98971.45;107570;1310;22229;-43
2023/03/20 04:45:48;;;;;;;57.60;29.40;;;;;;;7.96;64.23;98979.30;107558;1310;22249;-43
2023/03/20 04:48:14;;;;;;;54.70;28.10;;;;;;;7.98;64.25;98977.84;107563;1310;24243;-43
2023/03/20 04:50:39;;;;;;;50.90;26.90;;;;;;;7.98;64.37;98978.70;107565;1310;24430;-42
2023/03/20 04:53:05;;;;;;;64.30;28.40;;;;;;;7.98;64.54;98979.77;107572;1310;22454;-42
2023/03/20 04:55:30;;;;;;;65.40;30.20;;;;;;;7.99;64.09;98980.23;107575;1310;23236;-43
